TAM3278 SBGR-SBCH
Flight info
| Callsign | TAM3278 |
|---|---|
| Flight time | 1h 14m |
| Altitude | 30000 |
| Route | SOVSI UZ85 RAXIT DCT UMDOR |
| Aircraft | A320/M-SDFGHIRWY/SB1 |
Departure
| Time | 2026-05-08 00:25 |
|---|---|
| Airport | São Paulo/Guarulhos–Governor André Franco Montoro International Airport (SBGR) |
Arrival
| Time | 2026-05-08 01:39 |
|---|---|
| Airport | Serafin Enoss Bertaso Airport (SBCH) |
| Time | Latitude | Longitude | Altitude | Speed | Heading |
|---|---|---|---|---|---|
| 2026-05-07 23:51 | -23.42608 | -46.46930 | 2464 ft | 0 kts | 253° |
| 2026-05-08 00:14 | -23.42602 | -46.46906 | 2462 ft | 2 kts | 253° |
| 2026-05-08 00:14 | -23.42594 | -46.46883 | 2457 ft | 4 kts | 241° |
| 2026-05-08 00:15 | -23.42578 | -46.46861 | 2455 ft | 4 kts | 214° |
| 2026-05-08 00:15 | -23.42555 | -46.46851 | 2456 ft | 4 kts | 168° |
| 2026-05-08 00:15 | -23.42539 | -46.46855 | 2453 ft | 0 kts | 163° |
| 2026-05-08 00:19 | -23.42555 | -46.46850 | 2456 ft | 5 kts | 163° |
| 2026-05-08 00:19 | -23.42605 | -46.46830 | 2459 ft | 10 kts | 147° |
| 2026-05-08 00:19 | -23.42677 | -46.46785 | 2459 ft | 14 kts | 158° |
| 2026-05-08 00:19 | -23.42728 | -46.46766 | 2465 ft | 5 kts | 162° |
| 2026-05-08 00:20 | -23.42759 | -46.46802 | 2466 ft | 11 kts | 242° |
| 2026-05-08 00:20 | -23.42835 | -46.46806 | 2465 ft | 8 kts | 201° |
| 2026-05-08 00:20 | -23.42864 | -46.46886 | 2467 ft | 14 kts | 255° |
| 2026-05-08 00:20 | -23.42895 | -46.47002 | 2473 ft | 18 kts | 253° |
| 2026-05-08 00:21 | -23.42932 | -46.47139 | 2469 ft | 20 kts | 253° |
| 2026-05-08 00:21 | -23.42974 | -46.47296 | 2466 ft | 22 kts | 254° |
| 2026-05-08 00:21 | -23.43019 | -46.47462 | 2465 ft | 23 kts | 253° |
| 2026-05-08 00:21 | -23.43064 | -46.47631 | 2464 ft | 24 kts | 253° |
| 2026-05-08 00:22 | -23.43110 | -46.47801 | 2465 ft | 22 kts | 253° |
| 2026-05-08 00:22 | -23.43155 | -46.47964 | 2468 ft | 23 kts | 253° |
| 2026-05-08 00:22 | -23.43199 | -46.48126 | 2473 ft | 22 kts | 253° |
| 2026-05-08 00:22 | -23.43240 | -46.48279 | 2471 ft | 18 kts | 253° |
| 2026-05-08 00:23 | -23.43292 | -46.48353 | 2469 ft | 12 kts | 199° |
| 2026-05-08 00:23 | -23.43386 | -46.48338 | 2468 ft | 15 kts | 163° |
| 2026-05-08 00:23 | -23.43419 | -46.48299 | 2462 ft | 0 kts | 70° |
| 2026-05-08 00:24 | -23.43417 | -46.48295 | 2461 ft | 4 kts | 70° |
| 2026-05-08 00:24 | -23.43371 | -46.48125 | 2462 ft | 54 kts | 73° |
| 2026-05-08 00:24 | -23.43201 | -46.47495 | 2463 ft | 117 kts | 74° |
| 2026-05-08 00:24 | -23.42924 | -46.46467 | 2472 ft | 164 kts | 73° |
| 2026-05-08 00:25 | -23.42589 | -46.45227 | 2996 ft | 169 kts | 72° |
| 2026-05-08 00:25 | -23.42234 | -46.44014 | 3679 ft | 168 kts | 67° |
| 2026-05-08 00:25 | -23.41871 | -46.42804 | 4281 ft | 171 kts | 65° |
| 2026-05-08 00:25 | -23.41480 | -46.41498 | 4553 ft | 193 kts | 65° |
| 2026-05-08 00:26 | -23.41048 | -46.40046 | 4812 ft | 217 kts | 65° |
| 2026-05-08 00:26 | -23.40721 | -46.38942 | 5002 ft | 233 kts | 66° |
| 2026-05-08 00:26 | -23.40122 | -46.36532 | 5386 ft | 270 kts | 83° |
| 2026-05-08 00:26 | -23.40495 | -46.34453 | 5980 ft | 290 kts | 106° |
| 2026-05-08 00:27 | -23.40956 | -46.33077 | 6497 ft | 293 kts | 105° |
| 2026-05-08 00:27 | -23.41672 | -46.30937 | 7245 ft | 297 kts | 105° |
| 2026-05-08 00:27 | -23.42369 | -46.28836 | 8026 ft | 300 kts | 106° |
| 2026-05-08 00:27 | -23.43220 | -46.26726 | 8709 ft | 310 kts | 122° |
| 2026-05-08 00:28 | -23.44818 | -46.25156 | 8997 ft | 315 kts | 155° |
| 2026-05-08 00:28 | -23.47667 | -46.24753 | 10025 ft | 315 kts | 187° |
| 2026-05-08 00:28 | -23.49151 | -46.24974 | 10386 ft | 323 kts | 192° |
| 2026-05-08 00:28 | -23.51317 | -46.25728 | 10591 ft | 342 kts | 211° |
| 2026-05-08 00:29 | -23.53277 | -46.27242 | 10937 ft | 353 kts | 225° |
| 2026-05-08 00:29 | -23.54993 | -46.29198 | 11511 ft | 357 kts | 234° |
| 2026-05-08 00:29 | -23.56355 | -46.31473 | 12142 ft | 358 kts | 247° |
| 2026-05-08 00:29 | -23.57191 | -46.34016 | 12747 ft | 359 kts | 259° |
| 2026-05-08 00:30 | -23.57766 | -46.36688 | 13354 ft | 363 kts | 260° |
| 2026-05-08 00:30 | -23.58313 | -46.39399 | 13937 ft | 367 kts | 261° |
| 2026-05-08 00:30 | -23.58844 | -46.42136 | 14458 ft | 371 kts | 261° |
| 2026-05-08 00:30 | -23.59370 | -46.44873 | 15006 ft | 374 kts | 261° |
| 2026-05-08 00:31 | -23.59906 | -46.47658 | 15599 ft | 377 kts | 261° |
| 2026-05-08 00:31 | -23.60452 | -46.50468 | 16175 ft | 379 kts | 260° |
| 2026-05-08 00:31 | -23.60992 | -46.53292 | 16741 ft | 382 kts | 261° |
| 2026-05-08 00:31 | -23.61465 | -46.56155 | 17309 ft | 384 kts | 263° |
| 2026-05-08 00:32 | -23.61888 | -46.59036 | 17844 ft | 386 kts | 263° |
| 2026-05-08 00:32 | -23.62289 | -46.61946 | 18389 ft | 389 kts | 263° |
| 2026-05-08 00:32 | -23.62884 | -46.64835 | 18851 ft | 393 kts | 253° |
| 2026-05-08 00:32 | -23.63971 | -46.67572 | 19338 ft | 397 kts | 242° |
| 2026-05-08 00:33 | -23.65437 | -46.70132 | 19830 ft | 399 kts | 239° |
| 2026-05-08 00:33 | -23.66940 | -46.72696 | 20332 ft | 400 kts | 239° |
| 2026-05-08 00:33 | -23.68438 | -46.75258 | 20826 ft | 401 kts | 239° |
| 2026-05-08 00:33 | -23.69922 | -46.77806 | 21301 ft | 402 kts | 239° |
| 2026-05-08 00:34 | -23.71419 | -46.80381 | 21781 ft | 403 kts | 239° |
| 2026-05-08 00:34 | -23.72934 | -46.82967 | 22255 ft | 404 kts | 239° |
| 2026-05-08 00:34 | -23.74456 | -46.85550 | 22728 ft | 405 kts | 239° |
| 2026-05-08 00:34 | -23.75986 | -46.88140 | 23184 ft | 406 kts | 238° |
| 2026-05-08 00:35 | -23.77514 | -46.90727 | 23639 ft | 407 kts | 238° |
| 2026-05-08 00:35 | -23.79056 | -46.93347 | 24008 ft | 409 kts | 238° |
| 2026-05-08 00:35 | -23.80600 | -46.95974 | 24368 ft | 410 kts | 238° |
| 2026-05-08 00:35 | -23.82109 | -46.98547 | 24722 ft | 411 kts | 239° |
| 2026-05-08 00:36 | -23.83654 | -47.01180 | 25066 ft | 413 kts | 238° |
| 2026-05-08 00:36 | -23.85216 | -47.03845 | 25438 ft | 415 kts | 238° |
| 2026-05-08 00:36 | -23.86779 | -47.06509 | 25794 ft | 416 kts | 238° |
| 2026-05-08 00:36 | -23.88341 | -47.09169 | 26141 ft | 418 kts | 238° |
| 2026-05-08 00:37 | -23.89908 | -47.11837 | 26484 ft | 420 kts | 238° |
| 2026-05-08 00:37 | -23.91495 | -47.14541 | 26831 ft | 422 kts | 239° |
| 2026-05-08 00:37 | -23.93084 | -47.17257 | 27185 ft | 423 kts | 239° |
| 2026-05-08 00:38 | -23.96265 | -47.22707 | 27865 ft | 427 kts | 239° |
| 2026-05-08 00:38 | -23.97861 | -47.25435 | 28200 ft | 429 kts | 239° |
| 2026-05-08 00:38 | -23.99481 | -47.28202 | 28523 ft | 430 kts | 239° |
| 2026-05-08 00:38 | -24.01092 | -47.30959 | 28826 ft | 432 kts | 239° |
| 2026-05-08 00:39 | -24.02714 | -47.33747 | 29136 ft | 434 kts | 239° |
| 2026-05-08 00:39 | -24.04334 | -47.36537 | 29440 ft | 436 kts | 239° |
| 2026-05-08 00:39 | -24.05949 | -47.39317 | 29737 ft | 438 kts | 239° |
| 2026-05-08 00:39 | -24.07588 | -47.42133 | 29943 ft | 439 kts | 239° |
| 2026-05-08 00:40 | -24.09243 | -47.44876 | 29976 ft | 428 kts | 234° |
| 2026-05-08 00:40 | -24.13539 | -47.49303 | 29965 ft | 425 kts | 216° |
| 2026-05-08 00:41 | -24.18536 | -47.52763 | 29954 ft | 425 kts | 215° |
| 2026-05-08 00:41 | -24.23544 | -47.56235 | 29951 ft | 425 kts | 215° |
| 2026-05-08 00:42 | -24.28535 | -47.59707 | 29942 ft | 425 kts | 215° |
| 2026-05-08 00:42 | -24.33521 | -47.63190 | 29929 ft | 425 kts | 215° |
| 2026-05-08 00:43 | -24.38495 | -47.66654 | 29918 ft | 425 kts | 215° |
| 2026-05-08 00:43 | -24.43280 | -47.70412 | 29914 ft | 421 kts | 226° |
| 2026-05-08 00:44 | -24.47519 | -47.74910 | 29909 ft | 422 kts | 226° |
| 2026-05-08 00:44 | -24.51716 | -47.79351 | 29915 ft | 422 kts | 226° |
| 2026-05-08 00:45 | -24.55942 | -47.83830 | 29919 ft | 422 kts | 227° |
| 2026-05-08 00:45 | -24.60174 | -47.88316 | 29923 ft | 423 kts | 227° |
| 2026-05-08 00:46 | -24.64406 | -47.92811 | 29925 ft | 423 kts | 227° |
| 2026-05-08 00:46 | -24.68640 | -47.97303 | 29933 ft | 423 kts | 227° |
| 2026-05-08 00:47 | -24.72871 | -48.01800 | 29937 ft | 423 kts | 227° |
| 2026-05-08 00:47 | -24.77092 | -48.06297 | 29939 ft | 422 kts | 227° |
| 2026-05-08 00:48 | -24.81307 | -48.10795 | 29940 ft | 422 kts | 227° |
| 2026-05-08 00:48 | -24.85515 | -48.15288 | 29941 ft | 421 kts | 227° |
| 2026-05-08 00:49 | -24.89714 | -48.19762 | 29938 ft | 421 kts | 227° |
| 2026-05-08 00:49 | -24.93920 | -48.24254 | 29946 ft | 421 kts | 228° |
| 2026-05-08 00:50 | -24.98122 | -48.28754 | 29940 ft | 421 kts | 228° |
| 2026-05-08 00:50 | -25.02325 | -48.33251 | 29939 ft | 420 kts | 228° |
| 2026-05-08 00:51 | -25.06521 | -48.37747 | 29939 ft | 420 kts | 228° |
| 2026-05-08 00:51 | -25.10694 | -48.42237 | 29944 ft | 419 kts | 229° |
| 2026-05-08 00:52 | -25.14127 | -48.47339 | 29936 ft | 412 kts | 242° |
| 2026-05-08 00:52 | -25.17106 | -48.52698 | 29935 ft | 413 kts | 242° |
| 2026-05-08 00:53 | -25.20119 | -48.58099 | 29937 ft | 413 kts | 242° |
| 2026-05-08 00:53 | -25.23123 | -48.63503 | 29943 ft | 413 kts | 242° |
| 2026-05-08 00:54 | -25.26129 | -48.68917 | 29939 ft | 412 kts | 242° |
| 2026-05-08 00:54 | -25.29123 | -48.74315 | 29942 ft | 412 kts | 242° |
| 2026-05-08 00:55 | -25.32072 | -48.79640 | 29949 ft | 412 kts | 242° |
| 2026-05-08 00:55 | -25.34980 | -48.84895 | 29957 ft | 411 kts | 242° |
| 2026-05-08 00:56 | -25.37955 | -48.90288 | 29981 ft | 411 kts | 243° |
| 2026-05-08 00:56 | -25.40929 | -48.95681 | 30000 ft | 411 kts | 243° |
| 2026-05-08 00:57 | -25.43906 | -49.01074 | 30005 ft | 411 kts | 243° |
| 2026-05-08 00:57 | -25.46884 | -49.06480 | 30021 ft | 411 kts | 243° |
| 2026-05-08 00:58 | -25.49855 | -49.11891 | 30026 ft | 411 kts | 243° |
| 2026-05-08 00:58 | -25.52804 | -49.17262 | 30029 ft | 411 kts | 243° |
| 2026-05-08 00:59 | -25.55771 | -49.22672 | 30016 ft | 411 kts | 243° |
| 2026-05-08 00:59 | -25.58738 | -49.28090 | 30007 ft | 411 kts | 243° |
| 2026-05-08 01:00 | -25.61704 | -49.33506 | 29997 ft | 411 kts | 243° |
| 2026-05-08 01:00 | -25.64665 | -49.38917 | 29978 ft | 411 kts | 243° |
| 2026-05-08 01:01 | -25.67633 | -49.44349 | 29971 ft | 411 kts | 243° |
| 2026-05-08 01:01 | -25.70596 | -49.49783 | 29971 ft | 411 kts | 243° |
| 2026-05-08 01:02 | -25.73555 | -49.55215 | 29960 ft | 411 kts | 244° |
| 2026-05-08 01:02 | -25.76507 | -49.60641 | 29955 ft | 411 kts | 244° |
| 2026-05-08 01:03 | -25.79456 | -49.66072 | 29957 ft | 411 kts | 244° |
| 2026-05-08 01:03 | -25.80950 | -49.68831 | 29965 ft | 422 kts | 244° |
| 2026-05-08 01:03 | -25.82456 | -49.71643 | 29962 ft | 421 kts | 244° |
| 2026-05-08 01:04 | -25.85289 | -49.77188 | 29956 ft | 410 kts | 246° |
| 2026-05-08 01:04 | -25.88011 | -49.82717 | 29946 ft | 409 kts | 246° |
| 2026-05-08 01:05 | -25.90741 | -49.88245 | 29948 ft | 408 kts | 246° |
| 2026-05-08 01:05 | -25.93488 | -49.93743 | 29953 ft | 408 kts | 246° |
| 2026-05-08 01:06 | -25.96249 | -49.99261 | 29951 ft | 407 kts | 246° |
| 2026-05-08 01:06 | -25.98989 | -50.04751 | 29947 ft | 406 kts | 246° |
| 2026-05-08 01:07 | -26.01735 | -50.10267 | 29944 ft | 406 kts | 246° |
| 2026-05-08 01:07 | -26.04466 | -50.15763 | 29944 ft | 406 kts | 246° |
| 2026-05-08 01:08 | -26.07188 | -50.21253 | 29939 ft | 405 kts | 246° |
| 2026-05-08 01:08 | -26.09913 | -50.26747 | 29940 ft | 405 kts | 246° |
| 2026-05-08 01:09 | -26.12636 | -50.32232 | 29939 ft | 404 kts | 246° |
| 2026-05-08 01:09 | -26.15329 | -50.37680 | 29940 ft | 404 kts | 246° |
| 2026-05-08 01:10 | -26.18032 | -50.43152 | 29934 ft | 403 kts | 246° |
| 2026-05-08 01:10 | -26.20730 | -50.48625 | 29928 ft | 403 kts | 246° |
| 2026-05-08 01:11 | -26.23426 | -50.54089 | 29928 ft | 403 kts | 246° |
| 2026-05-08 01:11 | -26.26123 | -50.59563 | 29925 ft | 403 kts | 247° |
| 2026-05-08 01:12 | -26.28813 | -50.65034 | 29925 ft | 403 kts | 247° |
| 2026-05-08 01:12 | -26.31501 | -50.70512 | 29928 ft | 403 kts | 247° |
| 2026-05-08 01:13 | -26.34185 | -50.75982 | 29929 ft | 403 kts | 247° |
| 2026-05-08 01:13 | -26.36417 | -50.80536 | 29926 ft | 403 kts | 247° |
| 2026-05-08 01:14 | -26.39537 | -50.86909 | 29931 ft | 403 kts | 247° |
| 2026-05-08 01:14 | -26.42217 | -50.92386 | 29928 ft | 402 kts | 247° |
| 2026-05-08 01:15 | -26.44895 | -50.97866 | 29912 ft | 403 kts | 247° |
| 2026-05-08 01:15 | -26.47575 | -51.03359 | 29913 ft | 403 kts | 248° |
| 2026-05-08 01:16 | -26.49795 | -51.07918 | 29911 ft | 402 kts | 248° |
| 2026-05-08 01:16 | -26.52460 | -51.13417 | 29643 ft | 403 kts | 248° |
| 2026-05-08 01:16 | -26.53791 | -51.16160 | 29058 ft | 399 kts | 248° |
| 2026-05-08 01:17 | -26.55123 | -51.18894 | 28071 ft | 405 kts | 248° |
| 2026-05-08 01:17 | -26.56474 | -51.21671 | 27433 ft | 404 kts | 248° |
| 2026-05-08 01:17 | -26.57807 | -51.24408 | 26944 ft | 400 kts | 248° |
| 2026-05-08 01:17 | -26.59124 | -51.27122 | 26346 ft | 391 kts | 248° |
| 2026-05-08 01:18 | -26.60398 | -51.29738 | 25924 ft | 377 kts | 248° |
| 2026-05-08 01:18 | -26.61631 | -51.32265 | 25502 ft | 364 kts | 249° |
| 2026-05-08 01:18 | -26.62825 | -51.34712 | 25086 ft | 354 kts | 249° |
| 2026-05-08 01:18 | -26.63996 | -51.37133 | 24667 ft | 352 kts | 249° |
| 2026-05-08 01:19 | -26.65149 | -51.39538 | 24243 ft | 350 kts | 250° |
| 2026-05-08 01:19 | -26.66298 | -51.41935 | 23808 ft | 349 kts | 250° |
| 2026-05-08 01:19 | -26.67446 | -51.44321 | 23357 ft | 349 kts | 250° |
| 2026-05-08 01:19 | -26.68593 | -51.46708 | 22869 ft | 348 kts | 250° |
| 2026-05-08 01:20 | -26.69736 | -51.49082 | 22439 ft | 345 kts | 250° |
| 2026-05-08 01:20 | -26.70876 | -51.51442 | 22005 ft | 344 kts | 249° |
| 2026-05-08 01:20 | -26.72008 | -51.53788 | 21575 ft | 343 kts | 250° |
| 2026-05-08 01:20 | -26.73133 | -51.56128 | 21142 ft | 341 kts | 249° |
| 2026-05-08 01:21 | -26.74256 | -51.58468 | 20708 ft | 340 kts | 249° |
| 2026-05-08 01:21 | -26.75375 | -51.60798 | 20288 ft | 340 kts | 249° |
| 2026-05-08 01:21 | -26.76493 | -51.63116 | 19867 ft | 339 kts | 249° |
| 2026-05-08 01:21 | -26.77613 | -51.65444 | 19439 ft | 339 kts | 249° |
| 2026-05-08 01:22 | -26.78728 | -51.67769 | 19020 ft | 339 kts | 249° |
| 2026-05-08 01:22 | -26.79842 | -51.70087 | 18602 ft | 339 kts | 249° |
| 2026-05-08 01:22 | -26.80959 | -51.72415 | 18172 ft | 339 kts | 249° |
| 2026-05-08 01:22 | -26.82075 | -51.74747 | 17717 ft | 339 kts | 248° |
| 2026-05-08 01:23 | -26.83187 | -51.77071 | 17297 ft | 338 kts | 249° |
| 2026-05-08 01:23 | -26.84298 | -51.79391 | 16883 ft | 337 kts | 249° |
| 2026-05-08 01:23 | -26.85391 | -51.81668 | 16473 ft | 336 kts | 249° |
| 2026-05-08 01:23 | -26.86495 | -51.83971 | 16066 ft | 335 kts | 249° |
| 2026-05-08 01:24 | -26.87596 | -51.86267 | 15657 ft | 334 kts | 249° |
| 2026-05-08 01:24 | -26.88694 | -51.88561 | 15254 ft | 333 kts | 249° |
| 2026-05-08 01:24 | -26.89784 | -51.90841 | 14852 ft | 332 kts | 249° |
| 2026-05-08 01:24 | -26.90872 | -51.93121 | 14441 ft | 331 kts | 249° |
| 2026-05-08 01:25 | -26.91951 | -51.95394 | 14046 ft | 330 kts | 249° |
| 2026-05-08 01:25 | -26.93029 | -51.97660 | 13631 ft | 329 kts | 249° |
| 2026-05-08 01:25 | -26.94105 | -51.99911 | 13197 ft | 326 kts | 249° |
| 2026-05-08 01:25 | -26.95175 | -52.02146 | 12800 ft | 325 kts | 249° |
| 2026-05-08 01:26 | -26.96236 | -52.04372 | 12387 ft | 323 kts | 249° |
| 2026-05-08 01:26 | -26.97291 | -52.06593 | 12017 ft | 322 kts | 249° |
| 2026-05-08 01:26 | -26.98321 | -52.08749 | 11876 ft | 304 kts | 249° |
| 2026-05-08 01:26 | -26.99299 | -52.10789 | 11622 ft | 287 kts | 250° |
| 2026-05-08 01:27 | -27.00213 | -52.12690 | 11509 ft | 268 kts | 250° |
| 2026-05-08 01:27 | -27.01068 | -52.14478 | 11276 ft | 255 kts | 251° |
| 2026-05-08 01:27 | -27.01892 | -52.16216 | 10877 ft | 251 kts | 251° |
| 2026-05-08 01:27 | -27.02703 | -52.17941 | 10430 ft | 250 kts | 251° |
| 2026-05-08 01:28 | -27.03509 | -52.19656 | 9886 ft | 248 kts | 252° |
| 2026-05-08 01:28 | -27.04316 | -52.21371 | 9334 ft | 248 kts | 252° |
| 2026-05-08 01:28 | -27.05116 | -52.23070 | 8853 ft | 246 kts | 252° |
| 2026-05-08 01:28 | -27.05917 | -52.24765 | 8474 ft | 247 kts | 252° |
| 2026-05-08 01:29 | -27.06715 | -52.26450 | 8112 ft | 246 kts | 252° |
| 2026-05-08 01:29 | -27.07516 | -52.28147 | 7772 ft | 247 kts | 252° |
| 2026-05-08 01:29 | -27.08327 | -52.29869 | 7397 ft | 251 kts | 252° |
| 2026-05-08 01:29 | -27.09141 | -52.31592 | 7137 ft | 248 kts | 253° |
| 2026-05-08 01:30 | -27.09746 | -52.33306 | 6954 ft | 225 kts | 274° |
| 2026-05-08 01:30 | -27.09511 | -52.34922 | 6816 ft | 205 kts | 305° |
| 2026-05-08 01:30 | -27.08526 | -52.35999 | 6609 ft | 196 kts | 336° |
| 2026-05-08 01:30 | -27.07180 | -52.36143 | 6409 ft | 207 kts | 7° |
| 2026-05-08 01:31 | -27.05895 | -52.35282 | 6204 ft | 233 kts | 37° |
| 2026-05-08 01:31 | -27.05138 | -52.33610 | 5973 ft | 254 kts | 66° |
| 2026-05-08 01:31 | -27.05196 | -52.31552 | 5546 ft | 276 kts | 99° |
| 2026-05-08 01:31 | -27.06165 | -52.29668 | 5278 ft | 287 kts | 131° |
| 2026-05-08 01:32 | -27.07825 | -52.28442 | 5019 ft | 289 kts | 163° |
| 2026-05-08 01:32 | -27.09774 | -52.28187 | 4817 ft | 276 kts | 196° |
| 2026-05-08 01:32 | -27.11523 | -52.28903 | 4822 ft | 264 kts | 221° |
| 2026-05-08 01:32 | -27.12826 | -52.30259 | 4823 ft | 248 kts | 245° |
| 2026-05-08 01:33 | -27.13521 | -52.31934 | 4832 ft | 230 kts | 265° |
| 2026-05-08 01:33 | -27.13840 | -52.33660 | 4820 ft | 225 kts | 270° |
| 2026-05-08 01:33 | -27.14148 | -52.35380 | 4827 ft | 223 kts | 270° |
| 2026-05-08 01:33 | -27.14454 | -52.37045 | 4823 ft | 216 kts | 270° |
| 2026-05-08 01:34 | -27.14753 | -52.38724 | 4824 ft | 223 kts | 270° |
| 2026-05-08 01:34 | -27.15059 | -52.40458 | 4794 ft | 228 kts | 270° |
| 2026-05-08 01:34 | -27.15369 | -52.42159 | 4669 ft | 218 kts | 270° |
| 2026-05-08 01:34 | -27.15674 | -52.43829 | 4534 ft | 213 kts | 270° |
| 2026-05-08 01:35 | -27.15965 | -52.45421 | 4496 ft | 204 kts | 272° |
| 2026-05-08 01:35 | -27.16045 | -52.46927 | 4405 ft | 189 kts | 283° |
| 2026-05-08 01:35 | -27.15880 | -52.48322 | 4328 ft | 174 kts | 289° |
| 2026-05-08 01:35 | -27.15690 | -52.49660 | 4267 ft | 173 kts | 290° |
| 2026-05-08 01:36 | -27.15498 | -52.50991 | 4186 ft | 172 kts | 290° |
| 2026-05-08 01:36 | -27.15308 | -52.52316 | 4112 ft | 171 kts | 291° |
| 2026-05-08 01:36 | -27.15121 | -52.53623 | 4044 ft | 172 kts | 290° |
| 2026-05-08 01:36 | -27.14935 | -52.54951 | 3949 ft | 172 kts | 291° |
| 2026-05-08 01:37 | -27.14749 | -52.56271 | 3848 ft | 168 kts | 294° |
| 2026-05-08 01:37 | -27.14580 | -52.57505 | 3606 ft | 154 kts | 289° |
| 2026-05-08 01:37 | -27.14424 | -52.58645 | 3395 ft | 144 kts | 290° |
| 2026-05-08 01:37 | -27.14271 | -52.59731 | 3181 ft | 139 kts | 288° |
| 2026-05-08 01:38 | -27.14115 | -52.60814 | 2966 ft | 141 kts | 287° |
| 2026-05-08 01:38 | -27.13955 | -52.61904 | 2763 ft | 147 kts | 289° |
| 2026-05-08 01:38 | -27.13785 | -52.63057 | 2521 ft | 150 kts | 284° |
| 2026-05-08 01:38 | -27.13627 | -52.64202 | 2299 ft | 146 kts | 284° |
| 2026-05-08 01:39 | -27.13467 | -52.65309 | 2127 ft | 134 kts | 284° |
| 2026-05-08 01:39 | -27.13363 | -52.66028 | 2129 ft | 52 kts | 278° |
| 2026-05-08 01:39 | -27.13341 | -52.66115 | 2129 ft | 3 kts | 8° |
| 2026-05-08 01:39 | -27.13318 | -52.66110 | 2128 ft | 3 kts | 14° |
| 2026-05-08 01:40 | -27.13298 | -52.66105 | 2128 ft | 6 kts | 14° |
| 2026-05-08 01:40 | -27.13275 | -52.66099 | 2127 ft | 4 kts | 12° |
| 2026-05-08 01:40 | -27.13239 | -52.66110 | 2127 ft | 2 kts | 329° |
| 2026-05-08 01:40 | -27.13228 | -52.66119 | 2127 ft | 1 kts | 325° |
| 2026-05-08 01:41 | -27.13222 | -52.66123 | 2127 ft | 1 kts | 323° |